Time;durP1;ratioP1;P1;durP2;ratioP2;P2;SDS_P1;SDS_P2;PMS_P1;PMS_P2;Temp;Humidity;BMP_temperature;BMP_pressure;BME280_temperature;BME280_humidity;BME280_pressure;Samples;Min_cycle;Max_cycle;Signal;HPM_P1;HPM_P2
2022/04/09 00:01:27;;;;;;;30.60;1.80;;;10.60;28.50;;;;;;5010537;28;20472;-59
2022/04/09 00:03:53;;;;;;;31.00;2.07;;;10.30;29.00;;;;;;5010852;28;20459;-59
2022/04/09 00:06:20;;;;;;;31.43;2.57;;;10.10;29.80;;;;;;5003455;28;20482;-58
2022/04/09 00:08:47;;;;;;;31.40;2.90;;;9.90;30.00;;;;;;5010397;28;20474;-60
2022/04/09 00:11:14;;;;;;;29.97;1.80;;;9.70;30.30;;;;;;5017607;28;20466;-60
2022/04/09 00:13:42;;;;;;;30.27;2.27;;;9.50;30.80;;;;;;5008702;28;20662;-59
2022/04/09 00:16:09;;;;;;;30.13;1.90;;;9.30;31.50;;;;;;5007123;28;20494;-61
2022/04/09 00:18:36;;;;;;;30.30;1.97;;;9.20;31.80;;;;;;4998650;28;20552;-60
2022/04/09 00:21:02;;;;;;;30.10;2.10;;;9.10;32.10;;;;;;5009000;28;20567;-60
2022/04/09 00:23:29;;;;;;;30.80;2.00;;;9.00;32.30;;;;;;5003433;28;20465;-60
2022/04/09 00:25:56;;;;;;;30.20;2.40;;;8.90;32.50;;;;;;5001009;28;20492;-59
2022/04/09 00:28:22;;;;;;;30.43;1.90;;;8.80;33.30;;;;;;5012334;28;20466;-60
2022/04/09 00:30:50;;;;;;;31.20;1.97;;;8.80;33.50;;;;;;5006318;28;20872;-59
2022/04/09 00:33:17;;;;;;;30.40;1.83;;;8.70;33.20;;;;;;5009744;28;20479;-59
2022/04/09 00:35:44;;;;;;;31.63;2.27;;;8.60;32.80;;;;;;5007380;28;20475;-57
2022/04/09 00:38:11;;;;;;;31.90;2.43;;;8.50;32.40;;;;;;5007139;28;20467;-59
2022/04/09 00:40:37;;;;;;;31.07;2.30;;;8.30;31.50;;;;;;5003729;28;20457;-60
2022/04/09 00:43:04;;;;;;;32.90;2.40;;;8.10;31.70;;;;;;5007928;28;20463;-60
2022/04/09 00:45:31;;;;;;;31.77;4.00;;;8.00;31.50;;;;;;5008178;28;20853;-59
2022/04/09 00:48:00;;;;;;;31.20;2.03;;;7.80;31.50;;;;;;5008785;28;20962;-60
2022/04/09 00:50:26;;;;;;;31.60;1.93;;;7.60;32.20;;;;;;5005472;28;20543;-60
2022/04/09 00:52:58;;;;;;;31.40;2.40;;;7.40;32.70;;;;;;5001032;28;20841;-59
2022/04/09 00:58:12;;;;;;;31.10;1.80;;;7.30;33.80;;;;;;5009594;28;20514;-59
2022/04/09 01:00:40;;;;;;;31.20;2.00;;;7.20;34.30;;;;;;5007057;28;20451;-59
2022/04/09 01:03:10;;;;;;;31.97;2.30;;;7.20;34.30;;;;;;4997337;28;20464;-60
2022/04/09 01:05:38;;;;;;;31.27;2.00;;;7.10;34.20;;;;;;5008466;28;20483;-60
2022/04/09 01:08:05;;;;;;;31.30;2.00;;;7.00;33.50;;;;;;5003772;28;21140;-60
2022/04/09 01:10:32;;;;;;;34.33;6.53;;;6.90;33.30;;;;;;5004066;28;20545;-59
2022/04/09 01:13:00;;;;;;;31.80;2.50;;;6.80;33.70;;;;;;5008946;28;20468;-59
2022/04/09 01:15:27;;;;;;;31.60;2.13;;;6.70;33.90;;;;;;5011059;28;20902;-59
2022/04/09 01:17:54;;;;;;;33.93;2.90;;;6.60;34.10;;;;;;5010110;28;20467;-60
2022/04/09 01:20:26;;;;;;;32.10;2.33;;;6.50;33.90;;;;;;5009075;28;20496;-60
2022/04/09 01:22:54;;;;;;;32.07;2.23;;;6.40;34.20;;;;;;5007390;28;20583;-60
2022/04/09 01:25:21;;;;;;;34.17;5.13;;;6.30;35.00;;;;;;5004466;28;20459;-60
2022/04/09 01:27:49;;;;;;;32.30;2.80;;;6.20;35.80;;;;;;5021490;28;20470;-60
2022/04/09 01:30:16;;;;;;;32.10;2.30;;;6.10;35.60;;;;;;5005812;28;20460;-59
2022/04/09 01:32:43;;;;;;;32.00;2.73;;;6.00;35.40;;;;;;5002079;28;20882;-60
2022/04/09 01:35:10;;;;;;;32.60;2.50;;;5.90;35.70;;;;;;5007015;28;20864;-60
2022/04/09 01:37:37;;;;;;;32.23;2.70;;;5.80;35.70;;;;;;5004994;28;20885;-60
2022/04/09 01:40:07;;;;;;;32.00;2.60;;;5.80;35.70;;;;;;5006922;28;20476;-61
2022/04/09 01:42:33;;;;;;;32.07;2.50;;;5.70;36.00;;;;;;5013528;28;20472;-60
2022/04/09 01:45:00;;;;;;;32.20;2.50;;;5.60;36.30;;;;;;5006822;28;20460;-60
2022/04/09 01:47:27;;;;;;;32.07;2.00;;;5.60;36.20;;;;;;5008492;28;20492;-62
2022/04/09 01:49:54;;;;;;;31.90;2.23;;;5.60;36.20;;;;;;5008795;28;20467;-59
2022/04/09 01:52:21;;;;;;;32.70;3.03;;;5.50;36.50;;;;;;5017116;28;20464;-60
2022/04/09 01:54:48;;;;;;;32.20;2.63;;;5.50;36.80;;;;;;5010375;28;20488;-58
2022/04/09 01:57:16;;;;;;;31.90;2.00;;;5.50;37.00;;;;;;5010591;28;20483;-59
2022/04/09 01:59:44;;;;;;;32.20;2.30;;;5.40;37.10;;;;;;5004787;28;20737;-58
2022/04/09 02:02:11;;;;;;;32.30;3.30;;;5.40;37.30;;;;;;5005966;28;20471;-58
2022/04/09 02:04:37;;;;;;;32.47;2.50;;;5.40;37.30;;;;;;5004843;28;20470;-60
2022/04/09 02:07:04;;;;;;;32.87;2.80;;;5.30;37.50;;;;;;5006631;28;20480;-59
2022/04/09 02:09:31;;;;;;;32.00;2.30;;;5.40;37.30;;;;;;5005743;28;20464;-59
2022/04/09 02:11:59;;;;;;;33.10;3.27;;;5.30;37.50;;;;;;5006952;28;20992;-59
2022/04/09 02:14:27;;;;;;;33.77;2.70;;;5.30;37.50;;;;;;5008967;28;20486;-59
2022/04/09 02:16:54;;;;;;;33.40;3.23;;;5.30;37.50;;;;;;5008087;28;20499;-60
2022/04/09 02:19:21;;;;;;;32.50;3.20;;;5.30;37.90;;;;;;5001625;28;20472;-60
2022/04/09 02:21:48;;;;;;;32.57;2.70;;;5.30;38.00;;;;;;5007923;28;20559;-60
2022/04/09 02:24:15;;;;;;;31.97;2.60;;;5.30;37.80;;;;;;5006513;28;20464;-59
2022/04/09 02:26:41;;;;;;;32.60;2.90;;;5.20;37.50;;;;;;5006620;28;20490;-58
2022/04/09 02:29:09;;;;;;;32.20;2.60;;;5.30;37.50;;;;;;5012835;28;20460;-59
2022/04/09 02:31:37;;;;;;;32.80;3.17;;;5.20;37.50;;;;;;5005262;28;20522;-60
2022/04/09 02:34:05;;;;;;;32.23;2.63;;;5.20;37.30;;;;;;5002014;28;20488;-59
2022/04/09 02:36:32;;;;;;;32.50;3.10;;;5.20;37.30;;;;;;5008868;28;20483;-62
2022/04/09 02:38:59;;;;;;;32.27;2.60;;;5.20;37.20;;;;;;5006182;28;20903;-59
2022/04/09 02:41:28;;;;;;;32.30;2.63;;;5.10;37.50;;;;;;5008249;28;20475;-59
2022/04/09 02:43:55;;;;;;;33.07;4.40;;;5.10;37.50;;;;;;5012682;28;20943;-59
2022/04/09 02:46:21;;;;;;;32.80;3.10;;;5.10;37.80;;;;;;5006885;28;20981;-59
2022/04/09 02:48:50;;;;;;;32.90;3.60;;;5.10;37.80;;;;;;5006072;28;20459;-60
2022/04/09 02:51:16;;;;;;;33.00;3.10;;;5.10;38.00;;;;;;5007224;28;20865;-60
2022/04/09 02:53:43;;;;;;;33.10;3.80;;;5.10;37.80;;;;;;5003236;28;20464;-58
2022/04/09 02:56:10;;;;;;;32.00;2.67;;;5.10;37.70;;;;;;5006842;28;20493;-59
2022/04/09 02:58:37;;;;;;;33.10;2.90;;;5.10;37.70;;;;;;5011272;28;20466;-60
2022/04/09 03:01:04;;;;;;;32.40;2.83;;;5.00;37.80;;;;;;5006264;28;20483;-60
2022/04/09 03:03:30;;;;;;;32.00;2.70;;;5.10;37.60;;;;;;5006249;28;20463;-60
2022/04/09 03:05:59;;;;;;;32.40;2.93;;;5.10;37.70;;;;;;5005754;28;20487;-59
2022/04/09 03:08:25;;;;;;;32.67;2.67;;;5.00;37.40;;;;;;5010479;28;20462;-60
2022/04/09 03:10:53;;;;;;;32.67;2.90;;;5.00;37.20;;;;;;5004874;28;20474;-59
2022/04/09 03:13:20;;;;;;;32.67;3.33;;;5.00;37.20;;;;;;5009632;28;20945;-60
2022/04/09 03:15:47;;;;;;;32.43;2.80;;;4.90;37.50;;;;;;5000539;28;20524;-59
2022/04/09 03:18:13;;;;;;;32.50;2.67;;;4.90;37.70;;;;;;5000620;28;20467;-60
2022/04/09 03:20:40;;;;;;;32.70;3.13;;;4.90;37.60;;;;;;5003374;28;20477;-59
2022/04/09 03:23:08;;;;;;;32.87;3.67;;;4.90;37.20;;;;;;5005392;28;20502;-58
2022/04/09 03:25:35;;;;;;;33.30;3.43;;;4.90;37.20;;;;;;5005446;28;21009;-62
2022/04/09 03:28:02;;;;;;;32.80;3.10;;;4.90;37.20;;;;;;5015730;28;20456;-59
2022/04/09 03:30:28;;;;;;;33.17;3.37;;;4.90;37.30;;;;;;5006920;28;20459;-60
2022/04/09 03:32:56;;;;;;;33.17;3.77;;;4.90;37.20;;;;;;5011588;28;20460;-60
2022/04/09 03:35:23;;;;;;;34.30;4.40;;;5.00;37.20;;;;;;5009334;28;20491;-60
2022/04/09 03:37:50;;;;;;;33.10;3.77;;;5.00;36.90;;;;;;5010281;28;20467;-60
2022/04/09 03:40:18;;;;;;;33.63;4.40;;;5.10;36.80;;;;;;5019233;28;20463;-60
2022/04/09 03:42:45;;;;;;;35.17;5.03;;;5.00;36.70;;;;;;5009411;28;20992;-59
2022/04/09 03:45:12;;;;;;;34.40;4.37;;;5.10;36.80;;;;;;5005881;28;21185;-59
2022/04/09 03:47:38;;;;;;;34.20;5.13;;;5.10;36.70;;;;;;5008896;28;20463;-60
2022/04/09 03:50:06;;;;;;;34.80;5.37;;;5.10;36.80;;;;;;5008889;28;20495;-58
2022/04/09 03:52:33;;;;;;;35.80;5.30;;;5.10;36.70;;;;;;5013099;28;20459;-59
2022/04/09 03:54:59;;;;;;;34.93;5.70;;;5.10;36.60;;;;;;5009205;28;20476;-59
2022/04/09 03:57:28;;;;;;;35.57;5.47;;;5.10;36.60;;;;;;5003806;28;20506;-60
2022/04/09 03:59:57;;;;;;;35.17;6.20;;;5.10;36.60;;;;;;5009795;28;20486;-59
2022/04/09 04:02:24;;;;;;;36.90;6.03;;;5.20;36.60;;;;;;5003391;28;20575;-61
2022/04/09 04:04:51;;;;;;;34.47;5.80;;;5.20;36.60;;;;;;5007339;28;20602;-60
2022/04/09 04:07:22;;;;;;;35.37;5.30;;;5.20;36.50;;;;;;5007866;28;20483;-60
2022/04/09 04:09:49;;;;;;;35.17;6.17;;;5.20;36.10;;;;;;5019158;28;20760;-58
2022/04/09 04:12:16;;;;;;;37.60;7.27;;;5.10;36.10;;;;;;5009892;28;20475;-59
2022/04/09 04:14:44;;;;;;;34.90;5.40;;;5.20;36.00;;;;;;5009773;28;20487;-60
2022/04/09 04:17:11;;;;;;;36.50;7.80;;;5.20;35.80;;;;;;5008251;28;20902;-60
2022/04/09 04:19:39;;;;;;;35.00;5.57;;;5.20;36.00;;;;;;5008031;28;20463;-60
2022/04/09 04:22:07;;;;;;;35.23;5.63;;;5.20;35.80;;;;;;5009696;28;20474;-61
2022/04/09 04:24:37;;;;;;;35.70;5.80;;;5.20;35.90;;;;;;5010364;28;20989;-60
2022/04/09 04:27:05;;;;;;;35.27;4.87;;;5.30;36.20;;;;;;5003259;28;20571;-60
2022/04/09 04:29:31;;;;;;;36.70;6.00;;;5.30;36.10;;;;;;5008581;28;20460;-60
2022/04/09 04:32:00;;;;;;;34.27;5.00;;;5.30;36.00;;;;;;5007224;28;20483;-60
2022/04/09 04:34:26;;;;;;;36.53;5.83;;;5.30;36.20;;;;;;5013709;28;20487;-60
2022/04/09 04:36:53;;;;;;;35.20;5.40;;;5.40;36.10;;;;;;5018117;28;20486;-60
2022/04/09 04:39:20;;;;;;;34.80;5.63;;;5.40;36.40;;;;;;5008207;28;20476;-60
2022/04/09 04:41:47;;;;;;;35.90;5.97;;;5.40;36.30;;;;;;5003512;28;20479;-60
2022/04/09 04:44:13;;;;;;;34.37;5.43;;;5.40;36.70;;;;;;5008961;28;20467;-61
2022/04/09 04:46:41;;;;;;;34.53;5.70;;;5.40;36.50;;;;;;5009280;28;20492;-61
2022/04/09 04:49:09;;;;;;;34.67;5.40;;;5.40;36.70;;;;;;4998595;28;20470;-60
2022/04/09 04:51:36;;;;;;;35.10;5.47;;;5.40;36.30;;;;;;5016844;28;20852;-61
2022/04/09 04:54:03;;;;;;;35.00;4.97;;;5.40;36.20;;;;;;5008866;28;20468;-60
2022/04/09 04:56:30;;;;;;;34.73;5.33;;;5.50;36.40;;;;;;5009258;28;20475;-60
2022/04/09 04:58:57;;;;;;;35.30;6.13;;;5.50;36.10;;;;;;5008823;28;20843;-60
2022/04/09 05:01:23;;;;;;;35.70;6.00;;;5.50;36.00;;;;;;5012864;28;20478;-60
2022/04/09 05:03:51;;;;;;;36.33;6.83;;;5.50;36.50;;;;;;5012511;28;20459;-60
2022/04/09 05:06:19;;;;;;;36.03;6.63;;;5.50;36.10;;;;;;5002409;28;20472;-61
2022/04/09 05:08:45;;;;;;;36.47;7.00;;;5.50;36.50;;;;;;5004952;28;20487;-59
2022/04/09 05:11:12;;;;;;;39.60;8.00;;;5.50;36.50;;;;;;5007405;28;20460;-60
2022/04/09 05:13:39;;;;;;;36.97;7.00;;;5.50;36.40;;;;;;5008090;28;20467;-61
2022/04/09 05:16:06;;;;;;;37.40;6.07;;;5.50;36.60;;;;;;5009989;28;20482;-60
2022/04/09 05:18:33;;;;;;;36.70;7.60;;;5.50;36.50;;;;;;5005300;28;20958;-60
2022/04/09 05:20:59;;;;;;;37.70;7.50;;;5.50;36.50;;;;;;5016224;28;20460;-58
2022/04/09 05:23:28;;;;;;;40.53;8.37;;;5.50;36.80;;;;;;5008289;28;20826;-61
2022/04/09 05:25:54;;;;;;;42.33;9.33;;;5.50;37.00;;;;;;5007504;28;20475;-61
2022/04/09 05:28:21;;;;;;;37.43;8.27;;;5.60;36.80;;;;;;5016669;28;20474;-60
2022/04/09 05:30:50;;;;;;;39.40;9.60;;;5.60;36.70;;;;;;5009316;28;20470;-60
2022/04/09 05:33:17;;;;;;;37.17;6.90;;;5.60;36.60;;;;;;5002419;28;20892;-61
2022/04/09 05:35:44;;;;;;;35.50;6.10;;;5.50;36.60;;;;;;5004682;28;20479;-60
2022/04/09 05:38:11;;;;;;;36.67;7.63;;;5.60;36.20;;;;;;5018602;28;20460;-60
2022/04/09 05:40:39;;;;;;;38.60;7.30;;;5.60;36.10;;;;;;5008107;28;21041;-60
2022/04/09 05:43:06;;;;;;;37.90;8.10;;;5.60;36.10;;;;;;5007074;28;20978;-61
2022/04/09 05:45:33;;;;;;;40.17;11.37;;;5.60;36.10;;;;;;5006958;28;20553;-60
2022/04/09 05:48:00;;;;;;;45.10;12.23;;;5.60;36.30;;;;;;5005600;28;20548;-61
2022/04/09 05:50:27;;;;;;;43.77;12.77;;;5.60;36.60;;;;;;5019018;28;20976;-59
2022/04/09 05:52:54;;;;;;;45.07;12.97;;;5.60;36.60;;;;;;5009106;28;20470;-61
2022/04/09 05:55:21;;;;;;;45.83;13.23;;;5.60;36.60;;;;;;5007615;28;20480;-61
2022/04/09 05:57:49;;;;;;;42.23;11.97;;;5.60;37.50;;;;;;5007435;28;20467;-60
2022/04/09 06:00:17;;;;;;;42.17;12.60;;;5.50;37.20;;;;;;4998600;28;20483;-60
2022/04/09 06:02:44;;;;;;;44.87;13.43;;;5.60;37.20;;;;;;5003965;28;20475;-59
2022/04/09 06:05:11;;;;;;;41.83;11.37;;;5.60;37.20;;;;;;5009831;28;20473;-60
2022/04/09 06:07:38;;;;;;;42.37;11.67;;;5.60;37.10;;;;;;5011269;28;20559;-60
2022/04/09 06:10:06;;;;;;;42.40;11.87;;;5.60;37.20;;;;;;5005381;28;21024;-60
2022/04/09 06:12:33;;;;;;;39.57;10.50;;;5.60;37.10;;;;;;5002563;28;20486;-61
2022/04/09 06:15:01;;;;;;;41.67;11.30;;;5.70;36.60;;;;;;5002582;28;20507;-60
2022/04/09 06:17:28;;;;;;;42.30;10.90;;;5.80;36.40;;;;;;4999818;28;20491;-60
2022/04/09 06:19:55;;;;;;;41.80;11.10;;;5.90;36.60;;;;;;5001482;28;20475;-60
2022/04/09 06:22:22;;;;;;;42.70;13.47;;;6.00;36.50;;;;;;5003400;28;20460;-60
2022/04/09 06:24:49;;;;;;;56.07;12.80;;;6.10;36.10;;;;;;5003988;28;20471;-60
2022/04/09 06:27:16;;;;;;;46.63;13.20;;;6.20;34.80;;;;;;4998552;28;20567;-60
2022/04/09 06:29:42;;;;;;;42.67;11.50;;;6.30;34.30;;;;;;5008551;28;20476;-60
2022/04/09 06:32:10;;;;;;;41.23;11.40;;;6.50;34.70;;;;;;5000409;28;20476;-59
2022/04/09 06:34:37;;;;;;;41.27;12.87;;;6.60;34.50;;;;;;5001543;28;20474;-60
2022/04/09 06:37:04;;;;;;;41.37;11.40;;;6.70;34.40;;;;;;5003265;28;20497;-60
2022/04/09 06:39:31;;;;;;;40.67;9.70;;;6.90;34.10;;;;;;5001792;28;20470;-61
2022/04/09 06:41:58;;;;;;;39.80;9.40;;;7.00;33.10;;;;;;5003806;28;20484;-60
2022/04/09 06:44:25;;;;;;;41.30;9.70;;;7.20;31.10;;;;;;5004851;28;20464;-60
2022/04/09 06:46:52;;;;;;;38.40;9.10;;;7.40;31.40;;;;;;5005781;28;20483;-61
2022/04/09 06:49:20;;;;;;;38.83;10.23;;;7.70;30.10;;;;;;4999649;28;20464;-59
2022/04/09 06:51:48;;;;;;;37.97;8.17;;;7.80;29.30;;;;;;5002046;28;20476;-60
2022/04/09 06:54:15;;;;;;;37.83;8.33;;;8.10;29.80;;;;;;5013141;28;21091;-60
2022/04/09 06:56:43;;;;;;;36.77;7.53;;;9.30;29.10;;;;;;5005408;28;20488;-60
2022/04/09 06:59:10;;;;;;;36.77;7.20;;;11.10;25.00;;;;;;5001027;28;20522;-60
2022/04/09 07:01:37;;;;;;;36.80;7.83;;;12.90;20.10;;;;;;5002064;28;20479;-59
2022/04/09 07:04:04;;;;;;;34.40;6.37;;;13.40;17.70;;;;;;5000155;28;20459;-60
2022/04/09 07:06:32;;;;;;;32.87;6.10;;;13.40;17.10;;;;;;5004217;28;20480;-58
2022/04/09 07:08:59;;;;;;;36.20;7.40;;;13.70;16.30;;;;;;5010182;28;20478;-59
2022/04/09 07:11:26;;;;;;;33.83;6.30;;;14.30;15.00;;;;;;5008440;28;20488;-60
2022/04/09 07:13:53;;;;;;;36.33;7.33;;;15.50;13.60;;;;;;5006809;28;20460;-61
2022/04/09 07:16:20;;;;;;;36.10;8.53;;;16.20;11.70;;;;;;5013479;28;20985;-61
2022/04/09 07:18:47;;;;;;;32.27;6.80;;;15.90;11.30;;;;;;5004255;28;20488;-60
2022/04/09 07:21:14;;;;;;;32.70;6.83;;;16.40;9.80;;;;;;5002845;28;20460;-61
2022/04/09 07:23:42;;;;;;;35.10;6.97;;;16.90;8.50;;;;;;5003969;28;20460;-59
2022/04/09 07:26:08;;;;;;;34.17;6.93;;;17.60;8.80;;;;;;5009538;28;20863;-61
2022/04/09 07:28:36;;;;;;;32.20;6.60;;;19.60;7.30;;;;;;5004682;28;20468;-61
2022/04/09 07:31:02;;;;;;;31.00;7.03;;;20.70;4.50;;;;;;4999418;28;20502;-60
2022/04/09 07:33:29;;;;;;;31.50;6.23;;;21.30;3.90;;;;;;5006969;28;20454;-59
2022/04/09 07:35:56;;;;;;;29.37;5.57;;;21.80;2.00;;;;;;5012797;28;20487;-59
2022/04/09 07:38:23;;;;;;;30.90;5.37;;;22.10;1.60;;;;;;5006473;28;20467;-60
2022/04/09 07:40:51;;;;;;;30.03;5.37;;;22.70;1.00;;;;;;5011507;28;20923;-60
2022/04/09 07:43:18;;;;;;;32.23;4.97;;;23.00;1.00;;;;;;5005439;28;20475;-61
2022/04/09 07:45:45;;;;;;;29.50;4.73;;;22.20;1.00;;;;;;4995657;28;20484;-60
2022/04/09 07:48:12;;;;;;;28.60;5.10;;;21.70;1.00;;;;;;5002393;28;20468;-59
2022/04/09 07:50:39;;;;;;;28.60;4.47;;;21.20;1.00;;;;;;5001888;28;20464;-61
2022/04/09 07:53:07;;;;;;;32.30;4.80;;;20.30;1.40;;;;;;5010074;28;20501;-59
2022/04/09 07:55:34;;;;;;;29.03;4.67;;;19.90;2.50;;;;;;5003973;28;20561;-61
2022/04/09 07:58:03;;;;;;;30.60;4.30;;;20.60;2.30;;;;;;5005789;28;20467;-59
2022/04/09 08:00:30;;;;;;;27.97;3.70;;;21.20;2.20;;;;;;5004150;28;20476;-60
2022/04/09 08:02:57;;;;;;;28.80;4.10;;;22.40;1.00;;;;;;5006657;28;20468;-60
2022/04/09 08:05:24;;;;;;;28.57;4.77;;;24.00;1.00;;;;;;5009869;28;21182;-59
2022/04/09 08:07:52;;;;;;;29.37;5.00;;;26.30;1.00;;;;;;5004622;28;20479;-60
2022/04/09 08:10:19;;;;;;;26.80;3.70;;;27.40;1.00;;;;;;5006272;28;20503;-60
2022/04/09 08:12:48;;;;;;;27.47;4.53;;;29.00;1.00;;;;;;5000240;28;20473;-61
2022/04/09 08:15:18;;;;;;;29.60;4.57;;;28.60;1.00;;;;;;5005834;28;20460;-59
2022/04/09 08:17:45;;;;;;;27.07;4.27;;;28.80;1.00;;;;;;5007135;28;20538;-60
2022/04/09 08:20:13;;;;;;;26.27;3.00;;;30.20;1.00;;;;;;5012008;28;20467;-60
2022/04/09 08:22:40;;;;;;;28.33;3.73;;;29.10;1.00;;;;;;5014414;28;20543;-59
2022/04/09 08:25:07;;;;;;;31.07;5.20;;;26.50;1.00;;;;;;5008196;28;21000;-58
2022/04/09 08:27:35;;;;;;;28.60;4.43;;;24.30;1.00;;;;;;5007145;28;20460;-57
2022/04/09 08:30:03;;;;;;;28.67;4.43;;;22.60;1.00;;;;;;5014830;28;21285;-58
2022/04/09 08:32:31;;;;;;;32.00;7.27;;;21.10;1.00;;;;;;5007613;28;21040;-58
2022/04/09 08:34:57;;;;;;;32.47;4.70;;;19.60;1.00;;;;;;5015436;28;20490;-57
2022/04/09 08:37:24;;;;;;;33.97;5.43;;;18.40;2.40;;;;;;5009373;28;20487;-60
2022/04/09 08:39:54;;;;;;;33.47;6.17;;;17.50;3.20;;;;;;5008734;28;20464;-58
2022/04/09 08:42:22;;;;;;;33.23;6.73;;;16.60;4.70;;;;;;5007422;28;20468;-58
2022/04/09 08:44:49;;;;;;;31.60;5.13;;;15.90;6.30;;;;;;5011842;28;20522;-58
2022/04/09 08:47:16;;;;;;;33.60;4.50;;;15.20;6.90;;;;;;5009087;28;20515;-58
2022/04/09 08:49:48;;;;;;;35.77;5.00;;;14.50;7.60;;;;;;5018694;28;20466;-58
2022/04/09 08:52:16;;;;;;;36.07;6.13;;;13.80;8.90;;;;;;5007343;28;20471;-58
2022/04/09 08:54:43;;;;;;;34.43;5.40;;;13.20;10.00;;;;;;5010350;28;20469;-57
2022/04/09 08:57:11;;;;;;;36.13;5.63;;;12.70;10.90;;;;;;5013951;28;20509;-59
2022/04/09 08:59:38;;;;;;;41.53;6.37;;;12.20;11.20;;;;;;5010699;28;20506;-58
2022/04/09 09:02:06;;;;;;;34.43;5.97;;;11.80;11.80;;;;;;5015506;28;20491;-58
2022/04/09 09:04:33;;;;;;;35.57;4.23;;;11.50;12.80;;;;;;5017412;28;20467;-58
2022/04/09 09:07:21;;;;;;;33.37;4.90;;;11.10;13.00;;;;;;5014383;28;20487;-58
2022/04/09 09:09:48;;;;;;;34.50;4.93;;;10.80;14.40;;;;;;5011186;28;20459;-59
2022/04/09 09:12:29;;;;;;;35.27;5.77;;;10.60;15.10;;;;;;5014371;28;20455;-59
2022/04/09 09:14:57;;;;;;;35.80;5.93;;;12.10;15.90;;;;;;5006661;28;20467;-58
2022/04/09 09:17:31;;;;;;;34.83;4.87;;;12.80;12.90;;;;;;5008006;28;20491;-59
2022/04/09 09:19:58;;;;;;;33.60;4.30;;;12.50;11.90;;;;;;5020186;28;20459;-60
2022/04/09 09:22:37;;;;;;;35.00;5.80;;;12.10;12.40;;;;;;5011595;28;20472;-60
2022/04/09 09:25:07;;;;;;;34.07;4.50;;;12.70;12.40;;;;;;5020886;28;20470;-59
2022/04/09 09:27:34;;;;;;;32.50;4.10;;;12.80;11.70;;;;;;5009956;28;20506;-58
2022/04/09 09:30:00;;;;;;;37.70;5.20;;;12.50;11.60;;;;;;5009901;28;20464;-58
2022/04/09 09:32:29;;;;;;;36.00;5.73;;;12.60;12.10;;;;;;5009377;28;20468;-59
2022/04/09 09:34:56;;;;;;;34.43;5.60;;;12.50;12.30;;;;;;5005137;28;20460;-59
2022/04/09 09:37:24;;;;;;;34.90;5.10;;;12.20;12.40;;;;;;5016956;28;20492;-59
2022/04/09 09:39:52;;;;;;;32.40;4.60;;;12.00;13.10;;;;;;5009969;28;20853;-59
2022/04/09 09:42:20;;;;;;;34.40;5.23;;;11.90;12.90;;;;;;5011894;28;20463;-58
2022/04/09 09:44:46;;;;;;;32.73;3.10;;;12.00;12.60;;;;;;5011105;28;20464;-59
2022/04/09 09:47:14;;;;;;;31.60;3.60;;;14.60;12.20;;;;;;5007017;28;21009;-59
2022/04/09 09:49:53;;;;;;;33.40;3.03;;;17.70;6.40;;;;;;5022762;28;20462;-58
2022/04/09 09:52:24;;;;;;;32.03;5.20;;;17.90;4.50;;;;;;5003184;28;20467;-58
2022/04/09 09:55:01;;;;;;;34.00;4.20;;;16.90;5.10;;;;;;5003102;28;20527;-59
2022/04/09 09:57:30;;;;;;;31.60;4.10;;;15.90;5.60;;;;;;5013795;28;20890;-59
2022/04/09 10:00:01;;;;;;;30.87;2.87;;;15.20;7.50;;;;;;5012785;28;20536;-55
2022/04/09 10:02:28;;;;;;;31.80;3.47;;;15.80;7.20;;;;;;5005741;28;20476;-54
2022/04/09 10:04:56;;;;;;;31.50;2.90;;;15.80;6.10;;;;;;5017515;28;20451;-54
2022/04/09 10:07:23;;;;;;;34.23;3.23;;;15.40;6.20;;;;;;5004001;28;20476;-54
2022/04/09 10:09:50;;;;;;;32.10;3.47;;;14.80;7.00;;;;;;5009453;28;20460;-55
2022/04/09 10:12:21;;;;;;;31.57;4.07;;;14.40;7.60;;;;;;5010435;28;20490;-56
2022/04/09 10:14:51;;;;;;;30.90;3.50;;;14.20;8.30;;;;;;5014678;28;20459;-55
2022/04/09 10:17:20;;;;;;;34.83;3.97;;;14.00;8.70;;;;;;5003353;28;21156;-56
2022/04/09 10:19:54;;;;;;;31.77;3.73;;;13.80;9.40;;;;;;5021648;28;21027;-56
2022/04/09 10:22:22;;;;;;;34.30;4.23;;;13.40;10.00;;;;;;5006728;28;20461;-56
2022/04/09 10:24:50;;;;;;;33.60;3.37;;;13.10;10.40;;;;;;5007795;28;20539;-56
2022/04/09 10:27:38;;;;;;;34.63;4.30;;;12.80;10.80;;;;;;5001595;28;20475;-57
2022/04/09 10:30:19;;;;;;;33.20;3.23;;;12.90;10.70;;;;;;5021962;28;20463;-55
2022/04/09 10:32:47;;;;;;;31.80;3.63;;;15.80;7.10;;;;;;4998204;28;21766;-55
2022/04/09 10:35:25;;;;;;;32.03;3.63;;;15.90;4.80;;;;;;5016149;28;20962;-55
2022/04/09 10:38:21;;;;;;;32.23;4.20;;;15.20;5.80;;;;;;5003879;28;20483;-55
2022/04/09 10:41:28;;;;;;;34.70;4.53;;;14.50;7.60;;;;;;5005611;28;20464;-55
2022/04/09 10:44:00;;;;;;;32.77;3.97;;;13.90;7.40;;;;;;4996324;28;20463;-55
2022/04/09 10:46:36;;;;;;;30.97;3.40;;;13.40;7.40;;;;;;4999991;28;20476;-57
2022/04/09 10:49:27;;;;;;;31.70;3.77;;;13.00;8.90;;;;;;5006456;28;20508;-57
2022/04/09 10:52:06;;;;;;;35.37;3.93;;;12.60;9.70;;;;;;5012315;28;20462;-57
2022/04/09 10:54:34;;;;;;;34.00;3.80;;;12.20;10.70;;;;;;5001857;28;20519;-57
2022/04/09 10:57:08;;;;;;;36.20;4.80;;;12.00;11.20;;;;;;5001412;28;20493;-56
2022/04/09 10:59:38;;;;;;;33.10;3.93;;;11.70;11.60;;;;;;5009402;28;20510;-55
2022/04/09 11:02:05;;;;;;;32.60;3.13;;;11.50;12.30;;;;;;5006238;28;21074;-57
2022/04/09 11:04:42;;;;;;;31.67;2.87;;;11.90;13.40;;;;;;5009245;28;20476;-56
2022/04/09 11:07:11;;;;;;;31.80;3.50;;;15.00;11.40;;;;;;5007273;28;20490;-56
2022/04/09 11:09:47;;;;;;;30.60;3.00;;;17.00;6.00;;;;;;5008956;28;20460;-57
2022/04/09 11:12:16;;;;;;;31.90;3.10;;;16.50;4.50;;;;;;5016654;28;20463;-56
2022/04/09 11:14:47;;;;;;;32.67;3.27;;;15.50;5.20;;;;;;5010202;28;20768;-56
2022/04/09 11:17:25;;;;;;;31.40;3.13;;;14.60;6.60;;;;;;5007955;28;20488;-57
2022/04/09 11:19:52;;;;;;;32.20;3.70;;;13.90;8.00;;;;;;5014936;28;20467;-57
2022/04/09 11:22:19;;;;;;;31.60;3.50;;;13.50;8.50;;;;;;5010976;28;20467;-57
2022/04/09 11:24:46;;;;;;;31.83;3.60;;;13.30;10.20;;;;;;5004246;28;20465;-57
2022/04/09 11:27:13;;;;;;;31.57;3.40;;;13.40;10.70;;;;;;5005113;28;20486;-57
2022/04/09 11:29:41;;;;;;;32.10;2.87;;;13.50;9.50;;;;;;5007087;28;20961;-57
2022/04/09 11:32:18;;;;;;;31.33;3.00;;;13.40;9.70;;;;;;5004160;28;20473;-56
2022/04/09 11:34:48;;;;;;;32.83;2.83;;;13.20;8.00;;;;;;5000348;28;20475;-55
2022/04/09 11:37:15;;;;;;;31.57;3.30;;;12.80;8.00;;;;;;5002463;28;20487;-56
2022/04/09 11:39:43;;;;;;;32.50;4.30;;;12.50;9.90;;;;;;4999444;28;20471;-57
2022/04/09 11:42:10;;;;;;;33.53;3.57;;;12.30;10.70;;;;;;5008672;28;20487;-57
2022/04/09 11:44:38;;;;;;;36.33;3.30;;;12.20;10.90;;;;;;5006410;28;20459;-56
2022/04/09 11:47:11;;;;;;;31.70;3.00;;;12.10;11.10;;;;;;5003077;28;20883;-58
2022/04/09 11:49:38;;;;;;;32.03;4.40;;;11.90;10.40;;;;;;4997687;28;20463;-57
2022/04/09 11:52:06;;;;;;;31.30;3.10;;;11.70;10.50;;;;;;5012693;28;20478;-56
2022/04/09 11:54:34;;;;;;;34.27;5.20;;;11.60;10.50;;;;;;5000666;28;20477;-57
2022/04/09 11:57:01;;;;;;;33.20;5.03;;;11.60;10.90;;;;;;5006730;28;20492;-57
2022/04/09 11:59:28;;;;;;;33.87;4.40;;;11.70;11.20;;;;;;5005569;28;20851;-59
2022/04/09 12:01:55;;;;;;;35.23;3.07;;;11.90;11.00;;;;;;5000070;28;20494;-59
2022/04/09 12:04:24;;;;;;;33.37;3.30;;;11.90;11.10;;;;;;5008650;28;20467;-60
2022/04/09 12:06:52;;;;;;;35.60;4.20;;;11.80;11.00;;;;;;5023275;28;20470;-60
2022/04/09 12:09:21;;;;;;;31.90;3.50;;;11.80;10.80;;;;;;5002775;28;20492;-59
2022/04/09 12:11:53;;;;;;;35.50;3.57;;;12.00;11.50;;;;;;5004162;28;20465;-59
2022/04/09 12:14:20;;;;;;;30.67;3.30;;;12.30;11.60;;;;;;5007443;28;20451;-60
2022/04/09 12:16:47;;;;;;;38.57;3.20;;;12.50;9.70;;;;;;5006332;28;20951;-60
2022/04/09 12:19:14;;;;;;;32.50;3.30;;;12.50;9.60;;;;;;5004265;28;20466;-59
2022/04/09 12:21:42;;;;;;;32.47;3.17;;;12.50;10.80;;;;;;5016566;28;20470;-58
2022/04/09 12:24:11;;;;;;;33.60;3.17;;;12.60;10.90;;;;;;5008391;28;20506;-59
2022/04/09 12:26:40;;;;;;;30.80;2.90;;;12.60;10.80;;;;;;5011019;28;20486;-59
2022/04/09 12:29:08;;;;;;;34.97;3.43;;;12.80;11.10;;;;;;5006918;28;20479;-60
2022/04/09 12:31:35;;;;;;;32.10;4.60;;;12.90;11.00;;;;;;4998851;28;20529;-60
2022/04/09 12:34:03;;;;;;;32.87;3.57;;;12.80;10.30;;;;;;5010236;28;20459;-59
2022/04/09 12:36:30;;;;;;;32.47;3.67;;;12.60;10.40;;;;;;5009369;28;20471;-59
2022/04/09 12:39:00;;;;;;;31.47;3.73;;;12.40;10.30;;;;;;5005179;28;20491;-60
2022/04/09 12:41:27;;;;;;;30.13;3.00;;;12.20;10.90;;;;;;5004173;28;20563;-59
2022/04/09 12:43:54;;;;;;;34.17;3.30;;;12.00;11.10;;;;;;5004097;28;20490;-59
2022/04/09 12:46:22;;;;;;;33.30;3.53;;;11.90;11.10;;;;;;5007340;28;20565;-59
2022/04/09 12:48:50;;;;;;;34.40;4.33;;;11.80;11.10;;;;;;5007180;28;20499;-62
2022/04/09 12:51:19;;;;;;;31.73;4.20;;;11.80;11.40;;;;;;5011113;28;20564;-62